YQX weather

Gander International Airport
Gander, Newfoundland and Labrador, Canada

Public forecast

Using degrees Celsius for public forecast. Weather courtesy of forecast.io.

METAR (pilot weather report)

Retrieved 2019/05/24 04:14 UTC (31 minutes ago):

CYQX 240414Z 32018G25KT 4SM -RASN BR BKN003 OVC006 02/02 A2972 RMK SF5SF3 SLP072

TAF (pilot weather forecast)

Forecast is more than 12 hours old.

Retrieved 2019/05/23 00:39 UTC (1 day ago):

TAF CYQX 232338Z 2400/2424 33018G28KT 1/2SM -DZ FG VV002 TEMPO 2400/2416 3SM -RASN BR SCT002 OVC004 BECMG 2403/2405 32015G25KT FM241600 33015G25KT P6SM BKN020 FM242000 31010G20KT P6SM BKN040 BECMG 2422/2424 31010KT RMK NXT FCST BY 240600Z